Swift Arrow — WAFK — position and weather

sailwx.info

Track history (hours):
 
Tides and Currents Weather Stations Pressure Air Temp Water Temp Dewpoint Dewpoint Depression Visibility Wind Speed Wind Dir Waves Ship Positions

Swift Arrow

Owner: ARROW LAUNCH SERVICE INC, Port Angeles, WA. More information available from US FCC via Universal Licensing System and Coast Guard Vessel Documentation Center.

Last reported at 2014-Nov-18 19:12 UTC. Time now 2014-Nov-20 21:02 UTC.
Position N 47°15' W 122°26'.

Type: Port tender. MMSI: 369021000.

Date/timePositionNaut miles runAvg speedWind from/ knotsBaromVisibWave heightAir tempDewpointWater temp
2014-Nov-18 19:12N 47°15' W 122°26'1 1.2
2014-Nov-18 18:34N 47°16' W 122°26'1 0.0
2014-Nov-16 22:14N 47°15' W 122°26'5 4.7
2014-Nov-16 21:08N 47°20' W 122°28'2 3.2
2014-Nov-16 20:33N 47°18' W 122°28'1 0.9
2014-Nov-16 19:05N 47°17' W 122°27'3 6.0
2014-Nov-16 18:33N 47°20' W 122°28'3 0.3
2014-Nov-16 06:33N 47°17' W 122°26'1 0.7
2014-Nov-16 05:33N 47°17' W 122°27'2 0.1
2014-Nov-15 01:33N 47°18' W 122°30'4 1.8
2014-Nov-14 23:21N 47°17' W 122°25'2 2.0
2014-Nov-14 22:33N 47°15' W 122°26'0 0.1
2014-Nov-14 20:11N 47°15' W 122°26'1 2.1
2014-Nov-14 19:33N 47°17' W 122°26'1 0.2
2014-Nov-14 12:33N 47°15' W 122°26'0 0.0
2014-Nov-13 16:33N 47°15' W 122°26'1 1.0
2014-Nov-13 15:33N 47°16' W 122°27'2 0.4
2014-Nov-13 11:33N 47°18' W 122°28'3 0.2
2014-Nov-12 21:25N 47°15' W 122°26'5 6.1
2014-Nov-12 20:33N 47°20' W 122°29'5 4.9
2014-Nov-12 19:30N 47°15' W 122°26'0 0.1
2014-Nov-12 18:33N 47°15' W 122°26'2 2.1
2014-Nov-12 17:33N 47°17' W 122°25'2 2.2
2014-Nov-12 16:32N 47°15' W 122°26'0 0.0
2014-Nov-12 09:22N 47°15' W 122°26'5 6.5
2014-Nov-12 08:33N 47°20' W 122°29'5 0.7
2014-Nov-12 01:26N 47°16' W 122°26'0 0.2
2014-Nov-12 00:33N 47°16' W 122°26'0 0.0
2014-Nov-11 20:34N 47°16' W 122°26'0 0.4
2014-Nov-11 19:33N 47°15' W 122°26'1 0.8
2014-Nov-11 18:33N 47°16' W 122°26'4 3.6
2014-Nov-11 17:33N 47°19' W 122°29'4 0.6
2014-Nov-11 10:22N 47°15' W 122°26'2 2.0
2014-Nov-11 09:33N 47°17' W 122°26'2 0.0
2014-Nov-09 19:29N 47°15' W 122°26'2 1.7
2014-Nov-09 18:33N 47°17' W 122°26'0 0.2
2014-Nov-09 17:33N 47°17' W 122°26'2 0.2
2014-Nov-09 07:28N 47°15' W 122°26'4 4.7
2014-Nov-09 06:33N 47°19' W 122°30'4 3.9
2014-Nov-09 05:33N 47°16' W 122°26'1 0.2
2014-Nov-09 01:33N 47°16' W 122°25'1 1.2
2014-Nov-09 00:33N 47°15' W 122°26'  
Track history (hours):
 
Tides and Currents Weather Stations Pressure Air Temp Water Temp Dewpoint Dewpoint Depression Visibility Wind Speed Wind Dir Waves Ship Positions

Swift Arrow

Owner: ARROW LAUNCH SERVICE INC, Port Angeles, WA. More information available from US FCC via Universal Licensing System and Coast Guard Vessel Documentation Center.

Last reported at 2014-Nov-18 19:12 UTC. Time now 2014-Nov-20 21:02 UTC.
Position N 47°15' W 122°26'.

Type: Port tender. MMSI: 369021000.

Date/timePositionNaut miles runAvg speedWind from/ knotsBaromVisibWave heightAir tempDewpointWater temp
2014-Nov-18 19:12N 47°15' W 122°26'1 1.2
2014-Nov-18 18:34N 47°16' W 122°26'1 0.0
2014-Nov-16 22:14N 47°15' W 122°26'5 4.7
2014-Nov-16 21:08N 47°20' W 122°28'2 3.2
2014-Nov-16 20:33N 47°18' W 122°28'1 0.9
2014-Nov-16 19:05N 47°17' W 122°27'3 6.0
2014-Nov-16 18:33N 47°20' W 122°28'3 0.3
2014-Nov-16 06:33N 47°17' W 122°26'1 0.7
2014-Nov-16 05:33N 47°17' W 122°27'2 0.1
2014-Nov-15 01:33N 47°18' W 122°30'4 1.8
2014-Nov-14 23:21N 47°17' W 122°25'2 2.0
2014-Nov-14 22:33N 47°15' W 122°26'0 0.1
2014-Nov-14 20:11N 47°15' W 122°26'1 2.1
2014-Nov-14 19:33N 47°17' W 122°26'1 0.2
2014-Nov-14 12:33N 47°15' W 122°26'0 0.0
2014-Nov-13 16:33N 47°15' W 122°26'1 1.0
2014-Nov-13 15:33N 47°16' W 122°27'2 0.4
2014-Nov-13 11:33N 47°18' W 122°28'3 0.2
2014-Nov-12 21:25N 47°15' W 122°26'5 6.1
2014-Nov-12 20:33N 47°20' W 122°29'5 4.9
2014-Nov-12 19:30N 47°15' W 122°26'0 0.1
2014-Nov-12 18:33N 47°15' W 122°26'2 2.1
2014-Nov-12 17:33N 47°17' W 122°25'2 2.2
2014-Nov-12 16:32N 47°15' W 122°26'0 0.0
2014-Nov-12 09:22N 47°15' W 122°26'5 6.5
2014-Nov-12 08:33N 47°20' W 122°29'5 0.7
2014-Nov-12 01:26N 47°16' W 122°26'0 0.2
2014-Nov-12 00:33N 47°16' W 122°26'0 0.0
2014-Nov-11 20:34N 47°16' W 122°26'0 0.4
2014-Nov-11 19:33N 47°15' W 122°26'1 0.8
2014-Nov-11 18:33N 47°16' W 122°26'4 3.6
2014-Nov-11 17:33N 47°19' W 122°29'4 0.6
2014-Nov-11 10:22N 47°15' W 122°26'2 2.0
2014-Nov-11 09:33N 47°17' W 122°26'2 0.0
2014-Nov-09 19:29N 47°15' W 122°26'2 1.7
2014-Nov-09 18:33N 47°17' W 122°26'0 0.2
2014-Nov-09 17:33N 47°17' W 122°26'2 0.2
2014-Nov-09 07:28N 47°15' W 122°26'4 4.7
2014-Nov-09 06:33N 47°19' W 122°30'4 3.9
2014-Nov-09 05:33N 47°16' W 122°26'1 0.2
2014-Nov-09 01:33N 47°16' W 122°25'1 1.2
2014-Nov-09 00:33N 47°15' W 122°26'  

Dump ship's entire track history